Time;durP1;ratioP1;P1;durP2;ratioP2;P2;SDS_P1;SDS_P2;PMS_P1;PMS_P2;Temp;Humidity;BMP_temperature;BMP_pressure;BME280_temperature;BME280_humidity;BME280_pressure;Samples;Min_cycle;Max_cycle;Signal;HPM_P1;HPM_P2
2022/11/09 00:01:36;;;;;;;5.13;1.80;;;13.70;99.90;;;;;;5059238;28;20382;-64
2022/11/09 00:04:02;;;;;;;6.00;1.63;;;13.70;99.90;;;;;;5056177;28;20420;-64
2022/11/09 00:06:29;;;;;;;2.55;1.05;;;13.70;99.90;;;;;;5051187;28;20029;-64
2022/11/09 00:08:54;;;;;;;7.05;2.40;;;13.80;99.90;;;;;;5053891;28;20108;-64
2022/11/09 00:11:20;;;;;;;4.18;1.73;;;13.80;99.90;;;;;;5049374;28;20103;-64
2022/11/09 00:13:46;;;;;;;4.30;1.30;;;13.80;99.90;;;;;;5051350;28;20563;-64
2022/11/09 00:16:14;;;;;;;8.75;3.05;;;13.70;99.90;;;;;;5047796;28;20413;-64
2022/11/09 00:18:46;;;;;;;3.85;1.20;;;13.70;99.90;;;;;;5050453;28;20366;-64
2022/11/09 00:21:13;;;;;;;2.88;1.20;;;13.70;99.90;;;;;;5056421;28;20049;-64
2022/11/09 00:23:39;;;;;;;6.03;2.08;;;13.70;99.90;;;;;;5074626;28;20051;-64
2022/11/09 00:26:08;;;;;;;3.40;1.20;;;13.70;99.90;;;;;;5049099;28;20020;-64
2022/11/09 00:28:34;;;;;;;4.32;1.65;;;13.70;99.90;;;;;;5051029;28;20475;-64
2022/11/09 00:31:09;;;;;;;6.55;1.67;;;13.80;99.90;;;;;;5053876;28;20058;-64
2022/11/09 00:33:34;;;;;;;6.88;1.77;;;13.80;99.90;;;;;;5048530;28;20025;-64
2022/11/09 00:36:11;;;;;;;5.65;1.50;;;13.80;99.90;;;;;;5051494;28;20112;-64
2022/11/09 00:38:41;;;;;;;5.32;1.38;;;13.80;99.90;;;;;;5050914;28;20047;-64
2022/11/09 00:41:10;;;;;;;4.10;1.00;;;13.80;99.90;;;;;;5055277;28;20063;-65
2022/11/09 00:43:36;;;;;;;4.65;1.88;;;13.80;99.90;;;;;;5050008;28;20472;-64
2022/11/09 00:46:02;;;;;;;6.57;1.60;;;13.80;99.90;;;;;;5050267;28;20112;-64
2022/11/09 00:48:27;;;;;;;6.07;1.70;;;13.80;99.90;;;;;;5054106;28;20083;-65
2022/11/09 00:50:54;;;;;;;5.90;1.77;;;13.80;99.90;;;;;;5056991;28;20025;-64
2022/11/09 00:53:21;;;;;;;5.10;1.35;;;13.80;99.90;;;;;;5049035;28;20021;-64
2022/11/09 00:55:58;;;;;;;6.47;1.30;;;13.70;99.90;;;;;;5051510;28;20385;-64
2022/11/09 00:58:25;;;;;;;5.22;1.60;;;13.80;99.90;;;;;;5056264;28;20032;-64
2022/11/09 01:00:51;;;;;;;4.60;1.70;;;13.70;99.90;;;;;;5053251;28;20048;-64
2022/11/09 01:03:16;;;;;;;3.15;1.40;;;13.70;99.90;;;;;;5053118;28;20033;-64
2022/11/09 01:05:42;;;;;;;6.97;1.50;;;13.70;99.90;;;;;;5053497;28;20523;-64
2022/11/09 01:08:08;;;;;;;3.50;1.23;;;13.80;99.90;;;;;;5063472;28;20063;-64
2022/11/09 01:10:34;;;;;;;3.78;1.42;;;13.70;99.90;;;;;;5057436;28;20087;-64
2022/11/09 01:12:59;;;;;;;4.50;1.15;;;13.80;99.90;;;;;;5053202;28;20067;-64
2022/11/09 01:15:25;;;;;;;2.97;1.90;;;13.80;99.90;;;;;;5063384;28;20029;-64
2022/11/09 01:17:50;;;;;;;2.83;1.10;;;13.90;99.90;;;;;;5054627;28;20052;-65
2022/11/09 01:20:16;;;;;;;4.18;0.88;;;13.90;99.90;;;;;;5058010;28;20025;-64
2022/11/09 01:22:42;;;;;;;4.90;1.10;;;14.00;99.90;;;;;;5051227;28;20044;-64
2022/11/09 01:25:08;;;;;;;4.15;0.80;;;14.00;99.90;;;;;;5056157;28;20027;-64
2022/11/09 01:27:34;;;;;;;4.32;1.10;;;14.00;99.90;;;;;;5056087;28;20048;-64
2022/11/09 01:29:59;;;;;;;4.50;0.90;;;14.10;99.90;;;;;;5056217;28;20071;-64
2022/11/09 01:32:25;;;;;;;2.90;0.68;;;14.10;99.90;;;;;;5052206;28;20029;-64
2022/11/09 01:34:50;;;;;;;1.75;0.70;;;14.10;99.90;;;;;;5056774;28;20477;-64
2022/11/09 01:37:16;;;;;;;3.88;1.05;;;14.10;99.90;;;;;;5056235;28;20040;-64
2022/11/09 01:39:42;;;;;;;4.63;0.93;;;14.10;99.90;;;;;;5067671;28;20040;-64
2022/11/09 01:42:07;;;;;;;4.13;1.52;;;14.20;99.90;;;;;;5063745;28;20029;-64
2022/11/09 01:44:37;;;;;;;3.47;0.95;;;14.10;99.90;;;;;;5058582;28;20060;-64
2022/11/09 01:47:14;;;;;;;5.88;1.60;;;14.10;99.90;;;;;;5059994;28;20025;-65
2022/11/09 01:49:54;;;;;;;5.63;1.50;;;14.00;99.90;;;;;;5057642;28;20025;-64
2022/11/09 01:52:28;;;;;;;4.53;1.30;;;14.00;99.90;;;;;;5054731;28;20100;-64
2022/11/09 01:55:08;;;;;;;3.38;1.05;;;13.90;99.90;;;;;;5053158;28;20027;-64
2022/11/09 01:57:37;;;;;;;;;;;13.90;99.90;;;;;;5056180;28;20041;-64
2022/11/09 02:00:07;;;;;;;6.73;1.83;;;13.80;99.90;;;;;;5056316;28;19909;-64
2022/11/09 02:02:32;;;;;;;;;;;13.70;99.90;;;;;;5053547;28;20033;-64
2022/11/09 02:05:05;;;;;;;5.07;1.20;;;13.70;99.90;;;;;;5055805;28;20454;-64
2022/11/09 02:07:32;;;;;;;4.82;1.60;;;13.70;99.90;;;;;;5062850;28;20041;-64
2022/11/09 02:10:23;;;;;;;5.57;1.25;;;13.70;99.90;;;;;;5055864;28;20028;-64
2022/11/09 02:12:49;;;;;;;7.25;1.52;;;13.70;99.90;;;;;;5055180;28;20020;-64
2022/11/09 02:15:15;;;;;;;3.80;1.30;;;13.60;99.90;;;;;;5054133;28;20094;-64
2022/11/09 02:17:41;;;;;;;5.18;1.50;;;13.60;99.90;;;;;;5052211;28;20508;-64
2022/11/09 02:20:12;;;;;;;8.13;1.40;;;13.60;99.90;;;;;;5053715;28;20527;-64
2022/11/09 02:22:38;;;;;;;7.07;1.63;;;13.60;99.90;;;;;;5070010;28;20036;-64
2022/11/09 02:25:04;;;;;;;5.80;1.38;;;13.60;99.90;;;;;;5055625;28;20025;-64
2022/11/09 02:27:30;;;;;;;4.25;1.30;;;13.60;99.90;;;;;;5054258;28;20121;-64
2022/11/09 02:29:57;;;;;;;5.18;1.45;;;13.60;99.90;;;;;;5055317;28;20476;-64
2022/11/09 02:32:26;;;;;;;5.75;1.30;;;13.60;99.90;;;;;;5052070;28;20021;-64
2022/11/09 02:34:52;;;;;;;5.03;1.58;;;13.50;99.90;;;;;;5059992;28;20056;-64
2022/11/09 02:37:35;;;;;;;5.50;1.27;;;13.50;99.90;;;;;;5051317;28;20489;-64
2022/11/09 02:40:06;;;;;;;5.53;1.38;;;13.60;99.90;;;;;;5051676;28;20075;-64
2022/11/09 02:42:32;;;;;;;3.90;1.17;;;13.50;99.90;;;;;;5056142;28;20094;-64
2022/11/09 02:44:59;;;;;;;4.15;1.23;;;13.50;99.90;;;;;;5054564;28;20408;-64
2022/11/09 02:47:25;;;;;;;4.50;1.25;;;13.60;99.90;;;;;;5064759;28;20033;-64
2022/11/09 02:49:51;;;;;;;6.43;1.30;;;13.50;99.90;;;;;;5056898;28;20508;-64
2022/11/09 02:52:17;;;;;;;4.15;1.40;;;13.50;99.90;;;;;;5055465;28;20033;-64
2022/11/09 02:54:43;;;;;;;3.20;0.93;;;13.50;99.90;;;;;;5055908;28;20017;-64
2022/11/09 02:57:08;;;;;;;7.53;1.58;;;13.50;99.90;;;;;;5065084;28;20028;-64
2022/11/09 02:59:34;;;;;;;9.05;1.75;;;13.50;99.90;;;;;;5057065;28;20035;-64
2022/11/09 03:02:00;;;;;;;6.05;1.75;;;13.40;99.90;;;;;;5054658;28;20028;-64
2022/11/09 03:04:25;;;;;;;5.57;1.58;;;13.40;99.90;;;;;;5055129;28;20028;-64
2022/11/09 03:06:51;;;;;;;4.80;1.25;;;13.40;99.90;;;;;;5052932;28;20477;-64
2022/11/09 03:09:17;;;;;;;4.43;1.20;;;13.30;99.90;;;;;;5053604;28;20036;-64
2022/11/09 03:11:43;;;;;;;4.10;1.17;;;13.30;99.90;;;;;;5052279;28;20020;-64
2022/11/09 03:14:09;;;;;;;3.72;0.90;;;13.30;99.90;;;;;;5058503;28;20523;-64
2022/11/09 03:16:36;;;;;;;3.72;1.10;;;13.30;99.90;;;;;;5054325;28;20060;-64
2022/11/09 03:19:01;;;;;;;4.70;1.35;;;13.30;99.90;;;;;;5054560;28;20571;-64
2022/11/09 03:21:27;;;;;;;4.30;1.30;;;13.30;99.90;;;;;;5054033;28;20063;-64
2022/11/09 03:23:53;;;;;;;5.85;1.83;;;13.30;99.90;;;;;;5056833;28;20028;-64
2022/11/09 03:26:19;;;;;;;7.57;1.25;;;13.30;99.90;;;;;;5067224;28;20035;-64
2022/11/09 03:28:45;;;;;;;6.75;1.48;;;13.40;99.90;;;;;;5054760;28;20060;-64
2022/11/09 03:31:11;;;;;;;4.00;0.95;;;13.30;99.90;;;;;;5055058;28;20067;-64
2022/11/09 03:33:36;;;;;;;4.90;1.77;;;13.40;99.90;;;;;;5050807;28;20021;-64
2022/11/09 03:36:02;;;;;;;8.20;1.48;;;13.40;99.90;;;;;;5055854;28;20404;-64
2022/11/09 03:38:28;;;;;;;4.43;1.40;;;13.40;99.90;;;;;;5052045;28;20374;-64
2022/11/09 03:40:54;;;;;;;7.93;1.20;;;13.40;99.90;;;;;;5066537;28;20029;-64
2022/11/09 03:43:19;;;;;;;4.13;0.93;;;13.40;99.90;;;;;;5053781;28;20048;-64
2022/11/09 03:45:46;;;;;;;6.93;1.63;;;13.40;99.90;;;;;;5066425;28;20033;-64
2022/11/09 03:48:12;;;;;;;6.88;1.65;;;13.40;99.90;;;;;;5052313;28;20024;-64
2022/11/09 03:50:40;;;;;;;3.72;1.08;;;13.40;99.90;;;;;;5051559;28;20660;-64
2022/11/09 03:53:08;;;;;;;7.47;1.55;;;13.40;99.90;;;;;;5049014;28;20068;-64
2022/11/09 03:55:34;;;;;;;5.22;0.98;;;13.40;99.90;;;;;;5054123;28;20120;-64
2022/11/09 03:58:00;;;;;;;4.47;0.90;;;13.40;99.90;;;;;;5050425;28;20032;-64
2022/11/09 04:00:26;;;;;;;7.57;1.33;;;13.40;99.90;;;;;;5052143;28;20449;-65
2022/11/09 04:02:51;;;;;;;4.88;0.82;;;13.50;99.90;;;;;;5057802;28;20036;-64
2022/11/09 04:05:17;;;;;;;5.43;0.93;;;13.50;99.90;;;;;;5059205;28;20259;-64
2022/11/09 04:07:51;;;;;;;4.72;0.90;;;13.50;99.90;;;;;;5052619;28;20499;-64
2022/11/09 04:10:17;;;;;;;9.18;1.20;;;13.50;99.90;;;;;;5055767;28;20170;-64
2022/11/09 04:12:42;;;;;;;6.50;1.10;;;13.50;99.90;;;;;;5054331;28;20119;-64
2022/11/09 04:15:08;;;;;;;8.18;1.48;;;13.50;99.90;;;;;;5049778;28;20088;-64
2022/11/09 04:17:34;;;;;;;8.25;1.60;;;13.50;99.90;;;;;;5052837;28;20029;-64
2022/11/09 04:19:59;;;;;;;6.85;1.05;;;13.40;99.90;;;;;;5052358;28;20087;-64
2022/11/09 04:22:25;;;;;;;7.85;1.00;;;13.40;99.90;;;;;;5050228;28;20028;-64
2022/11/09 04:24:50;;;;;;;8.30;1.15;;;13.40;99.90;;;;;;5052403;28;20476;-64
2022/11/09 04:27:16;;;;;;;7.10;1.13;;;13.30;99.90;;;;;;5063792;28;20028;-64
2022/11/09 04:29:41;;;;;;;7.22;1.33;;;13.30;99.90;;;;;;5049733;28;20013;-64
2022/11/09 04:32:07;;;;;;;8.77;1.42;;;13.30;99.90;;;;;;5052280;28;20416;-64
2022/11/09 04:34:32;;;;;;;5.63;1.15;;;13.30;99.90;;;;;;5055489;28;20039;-64
2022/11/09 04:36:58;;;;;;;7.15;1.40;;;13.30;99.90;;;;;;5054183;28;20035;-64
2022/11/09 04:39:23;;;;;;;5.57;1.27;;;13.30;99.90;;;;;;5055192;28;20435;-64
2022/11/09 04:41:49;;;;;;;8.00;1.17;;;13.30;99.90;;;;;;5052286;28;20027;-64
2022/11/09 04:44:14;;;;;;;9.10;1.70;;;13.30;99.90;;;;;;5055522;28;20045;-64
2022/11/09 04:46:40;;;;;;;6.78;1.30;;;13.20;99.90;;;;;;5052126;28;20025;-64
2022/11/09 04:49:05;;;;;;;7.47;1.60;;;13.20;99.90;;;;;;5048670;28;20444;-64
2022/11/09 04:51:31;;;;;;;8.70;1.23;;;13.20;99.90;;;;;;5050678;28;20537;-64
2022/11/09 04:53:56;;;;;;;7.72;1.33;;;13.10;99.90;;;;;;5053827;28;20074;-64
2022/11/09 04:56:22;;;;;;;7.47;1.40;;;13.10;99.90;;;;;;5051088;28;20021;-64
2022/11/09 04:58:48;;;;;;;7.85;1.17;;;13.10;99.90;;;;;;5052653;28;20366;-64
2022/11/09 05:01:15;;;;;;;8.25;1.35;;;13.00;99.90;;;;;;5052354;28;20063;-64
2022/11/09 05:03:41;;;;;;;5.90;1.13;;;13.00;99.90;;;;;;5066421;28;20029;-64
2022/11/09 05:08:53;;;;;;;6.40;1.30;;;13.00;99.90;;;;;;5062543;28;20075;-64
2022/11/09 05:11:18;;;;;;;6.03;1.30;;;12.90;99.90;;;;;;5053483;28;20024;-64
2022/11/09 05:13:44;;;;;;;8.05;1.48;;;12.90;99.90;;;;;;5061676;28;20029;-64
2022/11/09 05:16:10;;;;;;;11.98;1.50;;;12.80;99.90;;;;;;5053798;28;20017;-64
2022/11/09 05:18:35;;;;;;;8.75;1.63;;;12.90;99.90;;;;;;5060962;28;20500;-64
2022/11/09 05:21:02;;;;;;;7.10;1.42;;;12.90;99.90;;;;;;5061977;28;20040;-64
2022/11/09 05:26:12;;;;;;;6.13;1.17;;;12.80;99.90;;;;;;5052597;28;20079;-64
2022/11/09 05:28:37;;;;;;;7.90;1.10;;;12.80;99.90;;;;;;5061236;28;20037;-64
2022/11/09 05:31:03;;;;;;;6.57;1.20;;;12.80;99.90;;;;;;5056095;28;20251;-64
2022/11/09 05:33:29;;;;;;;5.80;1.10;;;12.80;99.90;;;;;;5067081;28;20028;-64
2022/11/09 05:35:55;;;;;;;6.25;1.23;;;12.80;99.90;;;;;;5057440;28;20032;-64
2022/11/09 05:38:21;;;;;;;7.93;1.20;;;12.80;99.90;;;;;;5058055;28;20043;-64
2022/11/09 05:40:53;;;;;;;7.45;1.40;;;12.80;99.90;;;;;;5077727;28;20078;-64
2022/11/09 05:43:19;;;;;;;7.82;2.15;;;12.70;99.90;;;;;;5056654;28;20049;-64
2022/11/09 05:45:45;;;;;;;7.95;1.60;;;12.70;99.90;;;;;;5054501;28;20044;-64
2022/11/09 05:48:12;;;;;;;9.68;1.67;;;12.70;99.90;;;;;;5058185;28;20021;-64
2022/11/09 05:50:40;;;;;;;9.68;1.40;;;12.70;99.90;;;;;;5056502;28;20043;-64
2022/11/09 05:53:06;;;;;;;7.10;1.38;;;12.70;99.90;;;;;;5061918;28;20013;-64
2022/11/09 05:55:31;;;;;;;6.82;1.15;;;12.70;99.90;;;;;;5056837;28;20033;-64
2022/11/09 05:57:57;;;;;;;10.63;1.67;;;12.70;99.90;;;;;;5052175;28;20098;-64
2022/11/09 06:00:23;;;;;;;8.07;1.60;;;12.70;99.90;;;;;;5068881;28;20039;-66
2022/11/09 06:02:48;;;;;;;6.50;1.25;;;12.70;99.90;;;;;;5057271;28;20056;-64
2022/11/09 06:05:15;;;;;;;9.20;2.15;;;12.60;99.90;;;;;;5056851;28;20044;-64
2022/11/09 06:07:41;;;;;;;7.50;1.60;;;12.60;99.90;;;;;;5057749;28;20053;-64
2022/11/09 06:10:07;;;;;;;8.48;1.23;;;12.60;99.90;;;;;;5056174;28;20021;-64
2022/11/09 06:12:33;;;;;;;7.55;1.17;;;12.60;99.90;;;;;;5066135;28;20060;-64
2022/11/09 06:14:58;;;;;;;7.82;1.23;;;12.60;99.90;;;;;;5053956;28;20059;-64
2022/11/09 06:17:24;;;;;;;5.80;1.40;;;12.60;99.90;;;;;;5068505;28;20786;-64
2022/11/09 06:19:49;;;;;;;7.07;1.83;;;12.60;99.90;;;;;;5067753;28;20036;-64
2022/11/09 06:22:15;;;;;;;10.25;1.60;;;12.50;99.90;;;;;;5071818;28;20040;-64
2022/11/09 06:24:40;;;;;;;5.25;1.13;;;12.50;99.90;;;;;;5073877;28;20113;-64
2022/11/09 06:27:06;;;;;;;5.95;1.48;;;12.50;99.90;;;;;;5073953;28;20070;-64
2022/11/09 06:29:31;;;;;;;9.07;1.85;;;12.40;99.90;;;;;;5072604;28;20024;-64
2022/11/09 06:31:57;;;;;;;9.90;1.40;;;12.50;99.90;;;;;;5074340;28;20358;-64
2022/11/09 06:34:23;;;;;;;7.60;1.55;;;12.40;99.90;;;;;;5072698;28;20046;-64
2022/11/09 06:36:48;;;;;;;11.27;1.42;;;12.40;99.90;;;;;;5064401;28;20434;-64
2022/11/09 06:39:14;;;;;;;10.70;1.52;;;12.40;99.90;;;;;;5070435;28;20499;-64
2022/11/09 06:41:39;;;;;;;9.27;1.30;;;12.30;99.90;;;;;;5073996;28;20092;-64
2022/11/09 06:44:05;;;;;;;8.93;1.52;;;12.30;99.90;;;;;;5073197;28;20127;-64
2022/11/09 06:46:32;;;;;;;9.50;1.67;;;12.30;99.90;;;;;;5073041;28;20035;-64
2022/11/09 06:48:57;;;;;;;9.52;1.23;;;12.30;99.90;;;;;;5073584;28;20380;-64
2022/11/09 06:51:25;;;;;;;10.15;2.95;;;12.30;99.90;;;;;;5073864;28;20520;-64
2022/11/09 06:53:53;;;;;;;6.82;1.20;;;12.30;99.90;;;;;;5073843;28;20199;-64
2022/11/09 06:56:19;;;;;;;5.30;1.30;;;12.20;99.90;;;;;;5073214;28;20476;-64
2022/11/09 06:58:44;;;;;;;5.20;1.27;;;12.20;99.90;;;;;;5085638;28;20035;-64
2022/11/09 07:01:12;;;;;;;9.63;1.80;;;12.20;99.90;;;;;;5073841;28;20063;-64
2022/11/09 07:03:38;;;;;;;7.35;1.25;;;12.20;99.90;;;;;;5071559;28;20033;-64
2022/11/09 07:06:06;;;;;;;6.20;1.23;;;12.20;99.90;;;;;;5067155;28;20033;-64
2022/11/09 07:08:32;;;;;;;6.30;1.48;;;12.20;99.90;;;;;;5052513;28;20029;-64
2022/11/09 07:11:12;;;;;;;5.97;1.38;;;12.20;99.90;;;;;;5071290;28;20094;-64
2022/11/09 07:13:38;;;;;;;;;;;12.10;99.90;;;;;;5070768;28;20016;-64
2022/11/09 07:16:05;;;;;;;8.82;1.75;;;12.10;99.90;;;;;;5072289;28;20435;-64
2022/11/09 07:18:31;;;;;;;10.68;1.50;;;12.10;99.90;;;;;;5071653;28;20507;-64
2022/11/09 07:20:56;;;;;;;9.13;1.38;;;12.10;99.90;;;;;;5063019;28;20029;-64
2022/11/09 07:23:22;;;;;;;6.32;1.25;;;12.10;99.90;;;;;;5055591;28;20032;-65
2022/11/09 07:25:50;;;;;;;4.35;1.40;;;12.10;99.90;;;;;;5071660;28;20051;-64
2022/11/09 07:28:15;;;;;;;15.27;1.98;;;12.10;99.90;;;;;;5072077;28;20112;-64
2022/11/09 07:30:41;;;;;;;10.65;1.58;;;12.10;99.90;;;;;;5072404;28;20095;-64
2022/11/09 07:33:16;;;;;;;6.15;1.98;;;12.10;99.90;;;;;;5071336;28;20016;-64
2022/11/09 07:35:42;;;;;;;9.95;1.65;;;12.20;99.90;;;;;;5072813;28;20017;-64
2022/11/09 07:38:08;;;;;;;9.52;1.48;;;12.10;99.90;;;;;;5058551;28;20028;-64
2022/11/09 07:40:34;;;;;;;11.07;1.73;;;12.20;99.90;;;;;;5070860;28;20521;-64
2022/11/09 07:43:01;;;;;;;6.75;1.65;;;12.10;99.90;;;;;;5071030;28;20047;-64
2022/11/09 07:45:28;;;;;;;7.78;1.67;;;12.20;99.90;;;;;;5071168;28;20021;-64
2022/11/09 07:47:56;;;;;;;10.80;2.17;;;12.20;99.90;;;;;;5070928;28;20055;-64
2022/11/09 07:50:21;;;;;;;7.00;1.90;;;12.20;99.90;;;;;;5071811;28;20099;-64
2022/11/09 07:52:47;;;;;;;7.13;2.30;;;12.20;99.90;;;;;;5069387;28;20104;-64
2022/11/09 07:55:12;;;;;;;11.93;1.30;;;12.20;99.90;;;;;;5071449;28;20039;-64
2022/11/09 07:57:38;;;;;;;8.95;1.60;;;12.20;99.90;;;;;;5071108;28;20387;-64
2022/11/09 08:00:04;;;;;;;11.20;1.70;;;12.20;99.90;;;;;;5071313;28;20020;-64
2022/11/09 08:02:29;;;;;;;9.63;1.45;;;12.30;99.90;;;;;;5071408;28;20032;-65
2022/11/09 08:04:54;;;;;;;7.82;1.77;;;12.30;99.90;;;;;;5071182;28;20093;-64
2022/11/09 08:07:22;;;;;;;8.80;1.50;;;12.30;99.90;;;;;;5070589;28;20039;-64
2022/11/09 08:09:48;;;;;;;13.43;2.80;;;12.40;99.90;;;;;;5070583;28;20024;-64
2022/11/09 08:12:13;;;;;;;9.38;2.05;;;12.40;99.90;;;;;;5071688;28;20027;-64
2022/11/09 08:14:39;;;;;;;8.35;2.42;;;12.40;99.90;;;;;;5071009;28;20496;-64
2022/11/09 08:17:04;;;;;;;9.55;1.52;;;12.50;99.90;;;;;;5058609;28;20069;-64
2022/11/09 08:19:30;;;;;;;9.50;1.67;;;12.50;99.90;;;;;;5063885;28;20017;-64
2022/11/09 08:21:56;;;;;;;9.48;1.70;;;12.60;99.90;;;;;;5065497;28;20021;-64
2022/11/09 08:24:22;;;;;;;7.72;1.38;;;12.60;99.90;;;;;;5070829;28;20891;-64
2022/11/09 08:26:48;;;;;;;6.93;1.70;;;12.70;99.90;;;;;;5068024;28;20044;-64
2022/11/09 08:29:14;;;;;;;7.10;1.52;;;12.80;99.90;;;;;;5070749;28;20106;-64
2022/11/09 08:31:40;;;;;;;9.52;2.40;;;12.80;99.90;;;;;;5070824;28;20473;-64
2022/11/09 08:34:10;;;;;;;6.88;1.10;;;12.90;99.90;;;;;;5070720;28;20031;-64
2022/11/09 08:36:36;;;;;;;9.98;1.75;;;12.90;99.90;;;;;;5070902;28;20027;-64
2022/11/09 08:39:01;;;;;;;10.80;1.52;;;12.90;99.90;;;;;;5072327;28;20017;-64
2022/11/09 08:41:27;;;;;;;8.40;2.15;;;13.00;99.90;;;;;;5072318;28;20020;-64
2022/11/09 08:43:53;;;;;;;9.35;1.65;;;13.10;99.90;;;;;;5071980;28;20074;-64
2022/11/09 08:46:18;;;;;;;11.30;1.85;;;13.10;99.90;;;;;;5076302;28;20476;-64
2022/11/09 08:48:44;;;;;;;8.98;1.95;;;13.20;99.90;;;;;;5076066;28;20040;-64
2022/11/09 08:51:09;;;;;;;7.65;1.42;;;13.20;99.90;;;;;;5076086;28;20016;-64
2022/11/09 08:53:35;;;;;;;8.30;1.65;;;13.20;99.90;;;;;;5063663;28;20501;-64
2022/11/09 08:56:00;;;;;;;7.30;1.35;;;13.30;99.90;;;;;;5055850;28;20021;-64
2022/11/09 08:58:26;;;;;;;12.18;1.48;;;13.30;99.90;;;;;;5068631;28;20028;-64
2022/11/09 09:00:52;;;;;;;9.35;1.52;;;13.40;99.90;;;;;;5068936;28;20033;-64
2022/11/09 09:03:17;;;;;;;6.93;1.70;;;13.50;99.90;;;;;;5069170;28;20386;-64
2022/11/09 09:05:43;;;;;;;6.43;1.52;;;13.60;99.90;;;;;;5055888;28;20040;-64
2022/11/09 09:08:10;;;;;;;8.90;1.70;;;13.60;99.90;;;;;;5068490;28;20047;-64
2022/11/09 09:10:36;;;;;;;6.47;1.55;;;13.70;99.90;;;;;;5063039;28;20059;-64
2022/11/09 09:13:03;;;;;;;6.70;1.58;;;13.70;99.90;;;;;;5075186;28;20051;-64
2022/11/09 09:15:29;;;;;;;9.73;1.45;;;13.70;99.90;;;;;;5067864;28;20050;-64
2022/11/09 09:17:54;;;;;;;7.05;1.48;;;13.80;99.90;;;;;;5069770;28;20028;-64
2022/11/09 09:20:20;;;;;;;11.43;1.70;;;13.80;99.90;;;;;;5074151;28;20047;-64
2022/11/09 09:22:46;;;;;;;8.50;2.38;;;13.90;99.90;;;;;;5075252;28;20035;-64
2022/11/09 09:25:11;;;;;;;8.43;1.63;;;14.00;99.90;;;;;;5073989;28;20108;-64
2022/11/09 09:27:37;;;;;;;8.57;1.70;;;14.00;99.90;;;;;;5073652;28;20020;-64
2022/11/09 09:30:03;;;;;;;8.85;1.67;;;14.00;99.90;;;;;;5071925;28;20027;-64
2022/11/09 09:32:29;;;;;;;13.85;2.28;;;14.10;99.90;;;;;;5062710;28;20009;-64
2022/11/09 09:34:54;;;;;;;10.45;1.25;;;14.10;99.90;;;;;;5064868;28;20362;-64
2022/11/09 09:37:20;;;;;;;7.30;1.38;;;14.10;99.90;;;;;;5062378;28;20025;-64
2022/11/09 09:39:46;;;;;;;10.38;1.95;;;14.20;99.90;;;;;;5067374;28;20440;-64
2022/11/09 09:42:23;;;;;;;6.95;1.60;;;14.30;99.90;;;;;;5066900;28;20112;-64
2022/11/09 09:45:00;;;;;;;10.07;1.48;;;14.40;99.90;;;;;;5066068;28;20598;-64
2022/11/09 09:48:04;;;;;;;7.32;1.33;;;14.40;99.90;;;;;;5074356;28;20024;-64
2022/11/09 09:50:43;;;;;;;8.48;1.70;;;14.70;99.90;;;;;;5070363;28;20042;-64
2022/11/09 09:53:20;;;;;;;15.60;2.58;;;15.00;99.70;;;;;;5057273;28;20484;-64
2022/11/09 09:55:52;;;;;;;7.82;1.45;;;15.30;99.10;;;;;;5072085;28;20042;-64
2022/11/09 09:58:26;;;;;;;10.05;1.45;;;15.30;98.20;;;;;;5072226;28;20024;-64
2022/11/09 10:00:58;;;;;;;9.10;1.45;;;15.50;97.90;;;;;;5071601;28;20020;-64
2022/11/09 10:03:23;;;;;;;9.88;2.03;;;15.60;97.20;;;;;;5072747;28;20046;-64
2022/11/09 10:06:23;;;;;;;9.48;1.90;;;15.90;96.50;;;;;;5058510;28;20102;-64
2022/11/09 10:09:00;;;;;;;9.48;1.75;;;15.80;96.10;;;;;;5073315;28;20465;-64
2022/11/09 10:11:39;;;;;;;8.15;1.60;;;15.70;96.40;;;;;;5073152;28;20020;-64
2022/11/09 10:14:32;;;;;;;7.72;2.03;;;15.80;96.20;;;;;;5085928;28;20115;-64
2022/11/09 10:17:07;;;;;;;6.30;1.55;;;16.30;95.40;;;;;;5072944;28;20025;-65
2022/11/09 10:19:41;;;;;;;5.68;1.17;;;16.40;95.00;;;;;;5072876;28;20025;-64
2022/11/09 10:22:18;;;;;;;8.38;1.60;;;16.50;94.30;;;;;;5071170;28;20021;-64
2022/11/09 10:25:05;;;;;;;7.57;1.33;;;16.50;93.90;;;;;;5073094;28;20017;-64
2022/11/09 10:27:36;;;;;;;7.88;1.48;;;17.10;93.40;;;;;;5071518;28;20476;-64
2022/11/09 10:30:13;;;;;;;8.80;1.98;;;17.50;91.80;;;;;;5070043;28;20107;-64
2022/11/09 10:32:42;;;;;;;7.47;1.63;;;17.40;91.60;;;;;;5071445;28;20020;-64
2022/11/09 10:35:20;;;;;;;8.43;1.30;;;17.70;91.10;;;;;;5072818;28;20074;-64
2022/11/09 10:37:48;;;;;;;10.90;1.48;;;17.50;90.80;;;;;;5072800;28;20027;-64
2022/11/09 10:40:29;;;;;;;5.90;1.17;;;17.20;91.00;;;;;;5072799;28;20103;-64
2022/11/09 10:43:01;;;;;;;8.82;1.63;;;18.10;91.20;;;;;;5071630;28;20055;-64
2022/11/09 10:45:38;;;;;;;6.50;1.20;;;18.60;88.80;;;;;;5070709;28;20029;-65
2022/11/09 10:48:07;;;;;;;7.47;1.30;;;18.20;87.00;;;;;;5072111;28;20380;-64
2022/11/09 10:50:46;;;;;;;6.78;1.20;;;17.80;87.60;;;;;;5072655;28;20023;-64
2022/11/09 10:53:20;;;;;;;7.82;1.38;;;17.70;88.90;;;;;;5070452;28;20025;-65
2022/11/09 10:56:16;;;;;;;7.85;1.60;;;17.50;88.70;;;;;;5070654;28;20020;-64
2022/11/09 10:58:50;;;;;;;6.00;1.25;;;17.30;89.10;;;;;;5062191;28;20033;-64
2022/11/09 11:01:21;;;;;;;4.63;1.25;;;17.40;89.90;;;;;;5070465;28;20048;-64
2022/11/09 11:03:56;;;;;;;6.65;1.48;;;17.40;89.30;;;;;;5072370;28;20023;-64
2022/11/09 11:06:21;;;;;;;5.78;1.35;;;17.10;89.70;;;;;;5069562;28;20013;-64
2022/11/09 11:09:11;;;;;;;5.57;1.38;;;16.70;90.50;;;;;;5072186;28;20499;-64
2022/11/09 11:11:38;;;;;;;6.85;1.20;;;16.50;91.00;;;;;;5071515;28;20040;-64
2022/11/09 11:14:27;;;;;;;7.85;2.08;;;16.20;91.60;;;;;;5071877;28;20582;-64
2022/11/09 11:16:54;;;;;;;5.85;0.93;;;16.10;91.80;;;;;;5072078;28;20052;-64
2022/11/09 11:19:40;;;;;;;7.78;1.20;;;15.90;92.30;;;;;;5072021;28;20387;-64
2022/11/09 11:22:12;;;;;;;4.53;1.02;;;15.80;92.40;;;;;;5064628;28;20035;-64
2022/11/09 11:24:51;;;;;;;6.38;1.35;;;15.60;92.50;;;;;;5057981;28;20044;-64
2022/11/09 11:27:25;;;;;;;3.53;0.85;;;15.50;92.80;;;;;;5066336;28;20306;-64
2022/11/09 11:30:01;;;;;;;7.10;1.27;;;15.60;93.00;;;;;;5067191;28;20070;-64
2022/11/09 11:32:29;;;;;;;5.95;1.13;;;16.00;92.40;;;;;;5058657;28;20021;-64
2022/11/09 11:34:55;;;;;;;4.78;1.27;;;16.10;91.80;;;;;;5068532;28;20418;-64
2022/11/09 11:37:23;;;;;;;8.25;1.38;;;17.00;92.10;;;;;;5058156;28;20104;-65
2022/11/09 11:40:07;;;;;;;5.85;1.25;;;19.20;87.60;;;;;;5070773;28;20020;-65
2022/11/09 11:42:51;;;;;;;7.03;2.03;;;20.60;79.90;;;;;;5064519;28;20047;-64
2022/11/09 11:45:19;;;;;;;3.33;0.70;;;20.00;75.50;;;;;;5070596;28;20036;-64
2022/11/09 11:48:22;;;;;;;7.25;1.13;;;19.00;77.10;;;;;;5069412;28;20032;-64
2022/11/09 11:51:13;;;;;;;4.57;1.10;;;18.80;79.40;;;;;;5052859;28;20028;-64
2022/11/09 11:54:01;;;;;;;4.57;0.95;;;18.40;80.10;;;;;;5053216;28;20068;-65
2022/11/09 11:56:35;;;;;;;5.28;1.30;;;18.00;81.50;;;;;;5061160;28;20021;-64
2022/11/09 11:59:03;;;;;;;5.15;2.00;;;17.70;83.00;;;;;;5069307;28;20156;-64
2022/11/09 12:01:54;;;;;;;4.20;1.23;;;17.70;83.50;;;;;;5064408;28;20030;-64
2022/11/09 12:04:59;;;;;;;8.15;1.20;;;17.50;83.30;;;;;;5052593;28;20032;-64
2022/11/09 12:07:44;;;;;;;6.15;1.45;;;17.00;84.00;;;;;;5062770;28;20063;-64
2022/11/09 12:10:32;;;;;;;5.35;1.27;;;16.60;86.00;;;;;;5071039;28;20016;-64
2022/11/09 12:13:14;;;;;;;6.75;1.45;;;16.30;87.40;;;;;;5070983;28;20377;-64
2022/11/09 12:16:11;;;;;;;6.63;1.08;;;16.10;88.40;;;;;;5070233;28;20020;-64
2022/11/09 12:18:56;;;;;;;3.60;0.85;;;16.00;89.50;;;;;;5068744;28;20024;-64
2022/11/09 12:21:31;;;;;;;4.65;0.90;;;17.10;88.40;;;;;;5068740;28;20082;-64
2022/11/09 12:24:40;;;;;;;5.75;0.95;;;17.80;83.80;;;;;;5069414;28;20538;-64
2022/11/09 12:27:15;;;;;;;7.10;1.10;;;17.70;83.70;;;;;;5070039;28;20328;-65
2022/11/09 12:29:46;;;;;;;3.83;0.80;;;17.80;84.10;;;;;;5070923;28;20628;-65
2022/11/09 12:32:19;;;;;;;4.82;1.35;;;18.10;82.80;;;;;;5070907;28;20017;-64
2022/11/09 12:34:55;;;;;;;6.43;1.00;;;17.90;82.70;;;;;;5069234;28;20021;-64
2022/11/09 12:37:31;;;;;;;6.35;1.48;;;18.00;82.70;;;;;;5070241;28;20384;-64
2022/11/09 12:40:12;;;;;;;5.32;1.05;;;18.00;82.20;;;;;;5071012;28;20495;-64
2022/11/09 12:42:44;;;;;;;4.47;0.90;;;17.90;82.00;;;;;;5070432;28;20040;-64
2022/11/09 12:45:31;;;;;;;4.00;0.85;;;17.50;81.70;;;;;;5071770;28;20029;-64
2022/11/09 12:48:05;;;;;;;5.07;1.00;;;17.30;83.10;;;;;;5070052;28;20138;-64
2022/11/09 12:50:32;;;;;;;3.88;0.95;;;18.30;82.50;;;;;;5068118;28;20389;-64
2022/11/09 12:52:59;;;;;;;4.65;0.80;;;19.80;78.00;;;;;;5061135;28;20017;-65
2022/11/09 12:55:35;;;;;;;3.33;0.80;;;20.30;74.50;;;;;;5065572;28;20056;-65
2022/11/09 12:58:00;;;;;;;3.42;0.80;;;20.90;73.60;;;;;;5070882;28;20150;-65
2022/11/09 13:00:35;;;;;;;4.82;0.90;;;22.00;70.30;;;;;;5061851;28;20115;-65
2022/11/09 13:03:19;;;;;;;6.68;0.90;;;21.90;68.30;;;;;;5055140;28;20070;-65
2022/11/09 13:05:47;;;;;;;4.63;0.80;;;22.40;66.80;;;;;;5061311;28;20021;-65